sensor_id;sensor_type;location;lat;lon;timestamp;temperature;humidity
17891;DHT22;9071;48.220;14.480;2023-07-22T00:02:53;17.70;99.90
17891;DHT22;9071;48.220;14.480;2023-07-22T00:07:55;17.60;99.90
17891;DHT22;9071;48.220;14.480;2023-07-22T00:12:58;17.80;99.90
17891;DHT22;9071;48.220;14.480;2023-07-22T00:18:00;18.00;99.90
17891;DHT22;9071;48.220;14.480;2023-07-22T00:23:02;18.10;99.90
17891;DHT22;9071;48.220;14.480;2023-07-22T00:28:06;18.10;99.90
17891;DHT22;9071;48.220;14.480;2023-07-22T00:33:08;18.20;99.90
17891;DHT22;9071;48.220;14.480;2023-07-22T00:38:10;18.20;99.90
17891;DHT22;9071;48.220;14.480;2023-07-22T00:43:13;18.30;99.90
17891;DHT22;9071;48.220;14.480;2023-07-22T00:48:17;18.30;99.90
17891;DHT22;9071;48.220;14.480;2023-07-22T00:53:19;18.30;99.90
17891;DHT22;9071;48.220;14.480;2023-07-22T00:58:23;18.30;99.90
17891;DHT22;9071;48.220;14.480;2023-07-22T01:03:25;18.20;99.90
17891;DHT22;9071;48.220;14.480;2023-07-22T01:08:27;18.20;99.90
17891;DHT22;9071;48.220;14.480;2023-07-22T01:13:30;18.20;99.90
17891;DHT22;9071;48.220;14.480;2023-07-22T01:18:33;18.20;99.90
17891;DHT22;9071;48.220;14.480;2023-07-22T01:23:38;18.20;99.90
17891;DHT22;9071;48.220;14.480;2023-07-22T01:28:40;18.20;99.90
17891;DHT22;9071;48.220;14.480;2023-07-22T01:33:42;18.20;99.90
17891;DHT22;9071;48.220;14.480;2023-07-22T01:38:45;18.20;99.90
17891;DHT22;9071;48.220;14.480;2023-07-22T01:43:47;18.20;99.90
17891;DHT22;9071;48.220;14.480;2023-07-22T01:48:49;18.10;99.90
17891;DHT22;9071;48.220;14.480;2023-07-22T01:53:53;18.10;99.90
17891;DHT22;9071;48.220;14.480;2023-07-22T01:58:57;18.00;99.90
17891;DHT22;9071;48.220;14.480;2023-07-22T02:03:59;17.90;99.90
17891;DHT22;9071;48.220;14.480;2023-07-22T02:09:03;17.80;99.90
17891;DHT22;9071;48.220;14.480;2023-07-22T02:14:09;17.70;99.90
17891;DHT22;9071;48.220;14.480;2023-07-22T02:19:11;17.70;99.90
17891;DHT22;9071;48.220;14.480;2023-07-22T02:24:15;17.40;99.90
17891;DHT22;9071;48.220;14.480;2023-07-22T02:29:17;17.20;99.90
17891;DHT22;9071;48.220;14.480;2023-07-22T02:34:20;17.10;99.90
17891;DHT22;9071;48.220;14.480;2023-07-22T02:39:24;17.00;99.90
17891;DHT22;9071;48.220;14.480;2023-07-22T02:44:26;16.90;99.90
17891;DHT22;9071;48.220;14.480;2023-07-22T02:49:28;17.00;99.90
17891;DHT22;9071;48.220;14.480;2023-07-22T02:54:31;17.00;99.90
17891;DHT22;9071;48.220;14.480;2023-07-22T02:59:33;17.10;99.90
17891;DHT22;9071;48.220;14.480;2023-07-22T03:04:35;17.00;99.90
17891;DHT22;9071;48.220;14.480;2023-07-22T03:09:39;16.80;99.90
17891;DHT22;9071;48.220;14.480;2023-07-22T03:14:41;16.60;99.90
17891;DHT22;9071;48.220;14.480;2023-07-22T03:19:43;16.50;99.90
17891;DHT22;9071;48.220;14.480;2023-07-22T03:24:47;16.50;99.90
17891;DHT22;9071;48.220;14.480;2023-07-22T03:29:49;16.40;99.90
17891;DHT22;9071;48.220;14.480;2023-07-22T03:34:51;16.30;99.90
17891;DHT22;9071;48.220;14.480;2023-07-22T03:39:54;16.20;99.90
17891;DHT22;9071;48.220;14.480;2023-07-22T03:44:56;16.10;99.90
17891;DHT22;9071;48.220;14.480;2023-07-22T03:49:58;16.10;99.90
17891;DHT22;9071;48.220;14.480;2023-07-22T03:55:02;16.10;99.90
17891;DHT22;9071;48.220;14.480;2023-07-22T04:00:05;16.10;99.90
17891;DHT22;9071;48.220;14.480;2023-07-22T04:05:10;16.10;99.90
17891;DHT22;9071;48.220;14.480;2023-07-22T04:10:14;16.10;99.90
17891;DHT22;9071;48.220;14.480;2023-07-22T04:15:16;16.20;99.90
17891;DHT22;9071;48.220;14.480;2023-07-22T04:20:18;16.30;99.90
17891;DHT22;9071;48.220;14.480;2023-07-22T04:25:21;16.30;99.90
17891;DHT22;9071;48.220;14.480;2023-07-22T04:30:23;16.30;99.90
17891;DHT22;9071;48.220;14.480;2023-07-22T04:35:25;16.40;99.90
17891;DHT22;9071;48.220;14.480;2023-07-22T04:40:29;16.50;99.90
17891;DHT22;9071;48.220;14.480;2023-07-22T04:45:32;16.60;99.90
17891;DHT22;9071;48.220;14.480;2023-07-22T04:50:35;16.70;99.90
17891;DHT22;9071;48.220;14.480;2023-07-22T04:55:38;17.10;99.90
17891;DHT22;9071;48.220;14.480;2023-07-22T05:00:41;17.40;99.90
17891;DHT22;9071;48.220;14.480;2023-07-22T05:05:43;17.50;99.90
17891;DHT22;9071;48.220;14.480;2023-07-22T05:10:47;17.60;99.90
17891;DHT22;9071;48.220;14.480;2023-07-22T05:15:49;17.80;99.90
17891;DHT22;9071;48.220;14.480;2023-07-22T05:20:51;17.80;99.90
17891;DHT22;9071;48.220;14.480;2023-07-22T05:25:54;17.90;99.90
17891;DHT22;9071;48.220;14.480;2023-07-22T05:30:56;19.50;99.90
17891;DHT22;9071;48.220;14.480;2023-07-22T05:35:59;21.60;99.90
17891;DHT22;9071;48.220;14.480;2023-07-22T05:41:02;24.00;99.90
17891;DHT22;9071;48.220;14.480;2023-07-22T05:46:04;25.60;99.90
17891;DHT22;9071;48.220;14.480;2023-07-22T05:51:06;27.00;99.90
17891;DHT22;9071;48.220;14.480;2023-07-22T05:56:10;28.00;99.90
17891;DHT22;9071;48.220;14.480;2023-07-22T06:01:12;28.20;99.90
17891;DHT22;9071;48.220;14.480;2023-07-22T06:06:15;28.60;99.90
17891;DHT22;9071;48.220;14.480;2023-07-22T06:11:19;29.00;99.90
17891;DHT22;9071;48.220;14.480;2023-07-22T06:16:21;29.30;99.90
17891;DHT22;9071;48.220;14.480;2023-07-22T06:21:23;29.80;99.90
17891;DHT22;9071;48.220;14.480;2023-07-22T06:26:26;30.30;99.90
17891;DHT22;9071;48.220;14.480;2023-07-22T06:31:28;30.00;99.90
17891;DHT22;9071;48.220;14.480;2023-07-22T06:36:31;30.50;99.90
17891;DHT22;9071;48.220;14.480;2023-07-22T06:41:34;30.10;99.90
17891;DHT22;9071;48.220;14.480;2023-07-22T06:46:36;30.00;99.90
17891;DHT22;9071;48.220;14.480;2023-07-22T06:51:38;30.40;99.90
17891;DHT22;9071;48.220;14.480;2023-07-22T06:56:42;30.20;99.90
17891;DHT22;9071;48.220;14.480;2023-07-22T07:01:44;30.50;99.90
17891;DHT22;9071;48.220;14.480;2023-07-22T07:06:46;30.10;99.90
17891;DHT22;9071;48.220;14.480;2023-07-22T07:11:49;29.90;99.90
17891;DHT22;9071;48.220;14.480;2023-07-22T07:16:52;30.80;99.90
17891;DHT22;9071;48.220;14.480;2023-07-22T07:21:54;30.40;99.90
17891;DHT22;9071;48.220;14.480;2023-07-22T07:26:58;30.00;99.90
17891;DHT22;9071;48.220;14.480;2023-07-22T07:32:00;30.00;99.90
17891;DHT22;9071;48.220;14.480;2023-07-22T07:37:02;30.20;99.90
17891;DHT22;9071;48.220;14.480;2023-07-22T07:42:06;31.30;99.90
17891;DHT22;9071;48.220;14.480;2023-07-22T07:47:08;31.30;99.90
17891;DHT22;9071;48.220;14.480;2023-07-22T07:52:10;31.30;99.90
17891;DHT22;9071;48.220;14.480;2023-07-22T07:57:14;31.70;99.90
17891;DHT22;9071;48.220;14.480;2023-07-22T08:02:16;31.40;99.90
17891;DHT22;9071;48.220;14.480;2023-07-22T08:07:18;30.90;99.90
17891;DHT22;9071;48.220;14.480;2023-07-22T08:12:21;31.40;99.90
17891;DHT22;9071;48.220;14.480;2023-07-22T08:17:24;31.10;99.90
17891;DHT22;9071;48.220;14.480;2023-07-22T08:22:26;30.40;99.90
17891;DHT22;9071;48.220;14.480;2023-07-22T08:27:29;28.10;99.90
17891;DHT22;9071;48.220;14.480;2023-07-22T08:32:31;26.30;99.90
17891;DHT22;9071;48.220;14.480;2023-07-22T08:37:33;25.80;99.90
17891;DHT22;9071;48.220;14.480;2023-07-22T08:42:38;25.90;99.90
17891;DHT22;9071;48.220;14.480;2023-07-22T08:47:46;25.50;99.90
17891;DHT22;9071;48.220;14.480;2023-07-22T08:52:48;25.50;99.90
17891;DHT22;9071;48.220;14.480;2023-07-22T08:57:52;25.40;99.90
17891;DHT22;9071;48.220;14.480;2023-07-22T09:02:55;25.20;99.90
17891;DHT22;9071;48.220;14.480;2023-07-22T09:07:58;25.40;99.90
17891;DHT22;9071;48.220;14.480;2023-07-22T09:13:02;25.50;99.90
17891;DHT22;9071;48.220;14.480;2023-07-22T09:18:04;25.20;99.90
17891;DHT22;9071;48.220;14.480;2023-07-22T09:23:07;25.20;99.90
17891;DHT22;9071;48.220;14.480;2023-07-22T09:28:10;25.30;99.90
17891;DHT22;9071;48.220;14.480;2023-07-22T09:33:21;25.50;99.90
17891;DHT22;9071;48.220;14.480;2023-07-22T09:38:24;25.70;99.90
17891;DHT22;9071;48.220;14.480;2023-07-22T09:43:29;26.30;99.90
17891;DHT22;9071;48.220;14.480;2023-07-22T09:48:39;26.40;99.90
17891;DHT22;9071;48.220;14.480;2023-07-22T09:53:46;26.30;99.90
17891;DHT22;9071;48.220;14.480;2023-07-22T09:58:50;26.80;99.90
17891;DHT22;9071;48.220;14.480;2023-07-22T10:03:54;26.70;99.90
17891;DHT22;9071;48.220;14.480;2023-07-22T10:08:58;26.40;99.90
17891;DHT22;9071;48.220;14.480;2023-07-22T10:14:05;26.20;99.90
17891;DHT22;9071;48.220;14.480;2023-07-22T10:19:09;26.10;99.90
17891;DHT22;9071;48.220;14.480;2023-07-22T10:24:12;26.20;99.90
17891;DHT22;9071;48.220;14.480;2023-07-22T10:29:16;26.30;99.90
17891;DHT22;9071;48.220;14.480;2023-07-22T10:34:21;26.10;99.90
17891;DHT22;9071;48.220;14.480;2023-07-22T10:39:27;26.00;99.90
17891;DHT22;9071;48.220;14.480;2023-07-22T10:44:32;26.30;99.90
17891;DHT22;9071;48.220;14.480;2023-07-22T10:49:45;26.60;99.90
17891;DHT22;9071;48.220;14.480;2023-07-22T10:54:48;26.00;99.90
17891;DHT22;9071;48.220;14.480;2023-07-22T10:59:52;25.90;99.90
17891;DHT22;9071;48.220;14.480;2023-07-22T11:04:57;26.00;99.90
17891;DHT22;9071;48.220;14.480;2023-07-22T11:10:13;26.30;99.90
17891;DHT22;9071;48.220;14.480;2023-07-22T11:15:16;26.10;99.90
17891;DHT22;9071;48.220;14.480;2023-07-22T11:20:21;26.20;99.90
17891;DHT22;9071;48.220;14.480;2023-07-22T11:25:26;26.50;99.90
17891;DHT22;9071;48.220;14.480;2023-07-22T11:30:29;26.30;99.90
17891;DHT22;9071;48.220;14.480;2023-07-22T11:35:32;25.80;99.90
17891;DHT22;9071;48.220;14.480;2023-07-22T11:40:34;26.30;99.90
17891;DHT22;9071;48.220;14.480;2023-07-22T11:45:39;26.10;99.90
17891;DHT22;9071;48.220;14.480;2023-07-22T11:50:42;26.70;99.90
17891;DHT22;9071;48.220;14.480;2023-07-22T11:55:44;27.00;99.90
17891;DHT22;9071;48.220;14.480;2023-07-22T12:01:02;26.90;99.90
17891;DHT22;9071;48.220;14.480;2023-07-22T12:06:06;26.90;99.90
17891;DHT22;9071;48.220;14.480;2023-07-22T12:11:08;27.10;99.90
17891;DHT22;9071;48.220;14.480;2023-07-22T12:16:12;26.60;99.90
17891;DHT22;9071;48.220;14.480;2023-07-22T12:21:15;26.10;99.90
17891;DHT22;9071;48.220;14.480;2023-07-22T12:26:17;26.30;99.90
17891;DHT22;9071;48.220;14.480;2023-07-22T12:31:21;26.90;99.90
17891;DHT22;9071;48.220;14.480;2023-07-22T12:36:23;27.20;99.90
17891;DHT22;9071;48.220;14.480;2023-07-22T12:41:26;27.50;99.90
17891;DHT22;9071;48.220;14.480;2023-07-22T12:46:29;27.60;99.90
17891;DHT22;9071;48.220;14.480;2023-07-22T12:51:31;27.70;99.90
17891;DHT22;9071;48.220;14.480;2023-07-22T12:56:35;27.80;99.90
17891;DHT22;9071;48.220;14.480;2023-07-22T13:01:39;27.50;99.90
17891;DHT22;9071;48.220;14.480;2023-07-22T13:06:42;27.50;99.90
17891;DHT22;9071;48.220;14.480;2023-07-22T13:11:45;27.80;99.90
17891;DHT22;9071;48.220;14.480;2023-07-22T13:16:48;27.30;99.90
17891;DHT22;9071;48.220;14.480;2023-07-22T13:21:50;26.80;99.90
17891;DHT22;9071;48.220;14.480;2023-07-22T13:26:52;27.00;99.90
17891;DHT22;9071;48.220;14.480;2023-07-22T13:31:56;27.40;99.90
17891;DHT22;9071;48.220;14.480;2023-07-22T13:36:58;27.40;99.90
17891;DHT22;9071;48.220;14.480;2023-07-22T13:42:02;27.50;99.90
17891;DHT22;9071;48.220;14.480;2023-07-22T13:47:06;27.10;99.90
17891;DHT22;9071;48.220;14.480;2023-07-22T13:52:08;27.30;99.90
17891;DHT22;9071;48.220;14.480;2023-07-22T13:57:10;27.40;99.90
17891;DHT22;9071;48.220;14.480;2023-07-22T14:02:13;27.70;99.90
17891;DHT22;9071;48.220;14.480;2023-07-22T14:07:15;27.70;99.90
17891;DHT22;9071;48.220;14.480;2023-07-22T14:12:18;27.40;99.90
17891;DHT22;9071;48.220;14.480;2023-07-22T14:17:21;27.40;99.90
17891;DHT22;9071;48.220;14.480;2023-07-22T14:22:23;27.30;99.90
17891;DHT22;9071;48.220;14.480;2023-07-22T14:27:25;27.50;99.90
17891;DHT22;9071;48.220;14.480;2023-07-22T14:32:29;27.80;99.90
17891;DHT22;9071;48.220;14.480;2023-07-22T14:37:31;27.60;99.90
17891;DHT22;9071;48.220;14.480;2023-07-22T14:42:33;27.50;99.90
17891;DHT22;9071;48.220;14.480;2023-07-22T14:47:36;27.30;99.90
17891;DHT22;9071;48.220;14.480;2023-07-22T14:52:40;27.40;99.90
17891;DHT22;9071;48.220;14.480;2023-07-22T14:57:43;27.30;99.90
17891;DHT22;9071;48.220;14.480;2023-07-22T15:02:47;27.30;99.90
17891;DHT22;9071;48.220;14.480;2023-07-22T15:07:49;27.30;99.90
17891;DHT22;9071;48.220;14.480;2023-07-22T15:12:51;27.30;99.90
17891;DHT22;9071;48.220;14.480;2023-07-22T15:17:55;26.90;99.90
17891;DHT22;9071;48.220;14.480;2023-07-22T15:22:57;26.80;99.90
17891;DHT22;9071;48.220;14.480;2023-07-22T15:27:59;26.60;99.90
17891;DHT22;9071;48.220;14.480;2023-07-22T15:33:02;26.70;99.90
17891;DHT22;9071;48.220;14.480;2023-07-22T15:38:05;26.90;99.90
17891;DHT22;9071;48.220;14.480;2023-07-22T15:43:07;26.70;99.90
17891;DHT22;9071;48.220;14.480;2023-07-22T15:48:10;26.70;99.90
17891;DHT22;9071;48.220;14.480;2023-07-22T15:53:12;26.60;99.90
17891;DHT22;9071;48.220;14.480;2023-07-22T15:58:14;26.50;99.90
17891;DHT22;9071;48.220;14.480;2023-07-22T16:03:18;26.50;99.90
17891;DHT22;9071;48.220;14.480;2023-07-22T16:08:20;26.30;99.90
17891;DHT22;9071;48.220;14.480;2023-07-22T16:13:22;26.10;99.90
17891;DHT22;9071;48.220;14.480;2023-07-22T16:18:25;26.00;99.90
17891;DHT22;9071;48.220;14.480;2023-07-22T16:23:27;26.00;99.90
17891;DHT22;9071;48.220;14.480;2023-07-22T16:28:29;26.00;99.90
17891;DHT22;9071;48.220;14.480;2023-07-22T16:33:33;25.90;99.90
17891;DHT22;9071;48.220;14.480;2023-07-22T16:38:35;25.70;99.90
17891;DHT22;9071;48.220;14.480;2023-07-22T16:43:37;25.40;99.90
17891;DHT22;9071;48.220;14.480;2023-07-22T16:48:40;25.30;99.90
17891;DHT22;9071;48.220;14.480;2023-07-22T16:53:42;25.30;99.90
17891;DHT22;9071;48.220;14.480;2023-07-22T16:58:44;25.30;99.90
17891;DHT22;9071;48.220;14.480;2023-07-22T17:03:48;25.30;99.90
17891;DHT22;9071;48.220;14.480;2023-07-22T17:08:50;25.20;99.90
17891;DHT22;9071;48.220;14.480;2023-07-22T17:13:52;24.90;99.90
17891;DHT22;9071;48.220;14.480;2023-07-22T17:18:55;24.90;99.90
17891;DHT22;9071;48.220;14.480;2023-07-22T17:23:57;24.70;99.90
17891;DHT22;9071;48.220;14.480;2023-07-22T17:29:00;24.30;99.90
17891;DHT22;9071;48.220;14.480;2023-07-22T17:34:03;24.10;99.90
17891;DHT22;9071;48.220;14.480;2023-07-22T17:39:05;23.90;99.90
17891;DHT22;9071;48.220;14.480;2023-07-22T17:44:07;23.80;99.90
17891;DHT22;9071;48.220;14.480;2023-07-22T17:49:11;23.80;99.90
17891;DHT22;9071;48.220;14.480;2023-07-22T17:54:13;23.80;99.90
17891;DHT22;9071;48.220;14.480;2023-07-22T17:59:15;23.70;99.90
17891;DHT22;9071;48.220;14.480;2023-07-22T18:04:19;23.50;99.90
17891;DHT22;9071;48.220;14.480;2023-07-22T18:09:21;23.50;99.90
17891;DHT22;9071;48.220;14.480;2023-07-22T18:14:23;23.30;99.90
17891;DHT22;9071;48.220;14.480;2023-07-22T18:19:26;23.10;99.90
17891;DHT22;9071;48.220;14.480;2023-07-22T18:24:28;22.90;99.90
17891;DHT22;9071;48.220;14.480;2023-07-22T18:29:31;22.70;99.90
17891;DHT22;9071;48.220;14.480;2023-07-22T18:34:35;22.50;99.90
17891;DHT22;9071;48.220;14.480;2023-07-22T18:39:37;22.30;99.90
17891;DHT22;9071;48.220;14.480;2023-07-22T18:44:40;22.10;99.90
17891;DHT22;9071;48.220;14.480;2023-07-22T18:49:44;22.00;99.90
17891;DHT22;9071;48.220;14.480;2023-07-22T18:54:47;21.80;99.90
17891;DHT22;9071;48.220;14.480;2023-07-22T18:59:49;21.60;99.90
17891;DHT22;9071;48.220;14.480;2023-07-22T19:04:53;21.30;99.90
17891;DHT22;9071;48.220;14.480;2023-07-22T19:09:55;21.10;99.90
17891;DHT22;9071;48.220;14.480;2023-07-22T19:14:57;21.00;99.90
17891;DHT22;9071;48.220;14.480;2023-07-22T19:20:01;20.80;99.90
17891;DHT22;9071;48.220;14.480;2023-07-22T19:25:03;20.60;99.90
17891;DHT22;9071;48.220;14.480;2023-07-22T19:30:07;20.50;99.90
17891;DHT22;9071;48.220;14.480;2023-07-22T19:35:11;20.50;99.90
17891;DHT22;9071;48.220;14.480;2023-07-22T19:40:13;20.40;99.90
17891;DHT22;9071;48.220;14.480;2023-07-22T19:45:15;20.30;99.90
17891;DHT22;9071;48.220;14.480;2023-07-22T19:50:19;20.20;99.90
17891;DHT22;9071;48.220;14.480;2023-07-22T19:55:22;20.10;99.90
17891;DHT22;9071;48.220;14.480;2023-07-22T20:00:24;19.90;99.90
17891;DHT22;9071;48.220;14.480;2023-07-22T20:05:27;19.70;99.90
17891;DHT22;9071;48.220;14.480;2023-07-22T20:10:29;19.60;99.90
17891;DHT22;9071;48.220;14.480;2023-07-22T20:15:33;19.50;99.90
17891;DHT22;9071;48.220;14.480;2023-07-22T20:20:37;19.30;99.90
17891;DHT22;9071;48.220;14.480;2023-07-22T20:25:39;19.20;99.90
17891;DHT22;9071;48.220;14.480;2023-07-22T20:30:41;19.00;99.90
17891;DHT22;9071;48.220;14.480;2023-07-22T20:35:45;19.00;99.90
17891;DHT22;9071;48.220;14.480;2023-07-22T20:40:47;18.90;99.90
17891;DHT22;9071;48.220;14.480;2023-07-22T20:45:49;18.80;99.90
17891;DHT22;9071;48.220;14.480;2023-07-22T20:50:54;18.70;99.90
17891;DHT22;9071;48.220;14.480;2023-07-22T20:55:57;18.60;99.90
17891;DHT22;9071;48.220;14.480;2023-07-22T21:01:00;18.40;99.90
17891;DHT22;9071;48.220;14.480;2023-07-22T21:06:03;18.20;99.90
17891;DHT22;9071;48.220;14.480;2023-07-22T21:11:05;18.10;99.90
17891;DHT22;9071;48.220;14.480;2023-07-22T21:16:07;18.00;99.90
17891;DHT22;9071;48.220;14.480;2023-07-22T21:21:13;17.90;99.90
17891;DHT22;9071;48.220;14.480;2023-07-22T21:26:15;17.90;99.90
17891;DHT22;9071;48.220;14.480;2023-07-22T21:31:18;17.90;99.90
17891;DHT22;9071;48.220;14.480;2023-07-22T21:36:21;17.80;99.90
17891;DHT22;9071;48.220;14.480;2023-07-22T21:41:23;17.60;99.90
17891;DHT22;9071;48.220;14.480;2023-07-22T21:46:25;17.40;99.90
17891;DHT22;9071;48.220;14.480;2023-07-22T21:51:28;17.20;99.90
17891;DHT22;9071;48.220;14.480;2023-07-22T21:56:31;17.10;99.90
17891;DHT22;9071;48.220;14.480;2023-07-22T22:01:34;17.10;99.90
17891;DHT22;9071;48.220;14.480;2023-07-22T22:06:37;17.00;99.90
17891;DHT22;9071;48.220;14.480;2023-07-22T22:11:42;17.10;99.90
17891;DHT22;9071;48.220;14.480;2023-07-22T22:16:44;17.10;99.90
17891;DHT22;9071;48.220;14.480;2023-07-22T22:21:47;17.00;99.90
17891;DHT22;9071;48.220;14.480;2023-07-22T22:26:52;16.80;99.90
17891;DHT22;9071;48.220;14.480;2023-07-22T22:31:54;16.70;99.90
17891;DHT22;9071;48.220;14.480;2023-07-22T22:36:57;16.70;99.90
17891;DHT22;9071;48.220;14.480;2023-07-22T22:41:59;16.70;99.90
17891;DHT22;9071;48.220;14.480;2023-07-22T22:47:01;16.70;99.90
17891;DHT22;9071;48.220;14.480;2023-07-22T22:52:06;16.80;99.90
17891;DHT22;9071;48.220;14.480;2023-07-22T22:57:08;16.70;99.90
17891;DHT22;9071;48.220;14.480;2023-07-22T23:02:10;16.50;99.90
17891;DHT22;9071;48.220;14.480;2023-07-22T23:07:13;16.40;99.90
17891;DHT22;9071;48.220;14.480;2023-07-22T23:12:15;16.10;99.90
17891;DHT22;9071;48.220;14.480;2023-07-22T23:17:17;16.00;99.90
17891;DHT22;9071;48.220;14.480;2023-07-22T23:22:21;15.90;99.90
17891;DHT22;9071;48.220;14.480;2023-07-22T23:27:23;15.80;99.90
17891;DHT22;9071;48.220;14.480;2023-07-22T23:32:25;15.80;99.90
17891;DHT22;9071;48.220;14.480;2023-07-22T23:37:29;15.70;99.90
17891;DHT22;9071;48.220;14.480;2023-07-22T23:42:31;15.60;99.90
17891;DHT22;9071;48.220;14.480;2023-07-22T23:47:33;15.60;99.90
17891;DHT22;9071;48.220;14.480;2023-07-22T23:52:37;15.60;99.90
17891;DHT22;9071;48.220;14.480;2023-07-22T23:57:39;15.50;99.90
